createdAt,value
2022-08-17T00:00:33.322Z,99.90
2022-08-17T00:05:51.902Z,99.90
2022-08-17T00:10:56.329Z,99.90
2022-08-17T00:16:03.461Z,99.90
2022-08-17T00:21:10.211Z,99.90
2022-08-17T00:26:14.428Z,99.90
2022-08-17T00:31:17.641Z,99.90
2022-08-17T00:36:21.310Z,99.90
2022-08-17T00:41:27.940Z,99.90
2022-08-17T00:46:41.015Z,99.90
2022-08-17T00:51:53.341Z,99.90
2022-08-17T00:57:01.301Z,99.90
2022-08-17T01:02:05.560Z,99.90
2022-08-17T01:07:11.200Z,99.90
2022-08-17T01:12:14.861Z,99.90
2022-08-17T01:17:18.401Z,99.90
2022-08-17T01:22:25.520Z,99.90
2022-08-17T01:27:30.551Z,99.90
2022-08-17T01:32:33.540Z,99.90
2022-08-17T01:37:41.744Z,99.90
2022-08-17T01:43:00.625Z,99.90
2022-08-17T01:48:04.208Z,99.90
2022-08-17T01:53:23.122Z,99.90
2022-08-17T01:58:26.362Z,99.90
2022-08-17T02:03:30.742Z,99.90
2022-08-17T02:08:39.191Z,99.90
2022-08-17T02:14:03.383Z,99.90
2022-08-17T02:19:09.460Z,99.90
2022-08-17T02:24:17.964Z,99.90
2022-08-17T02:29:41.300Z,99.90
2022-08-17T02:34:44.549Z,99.90
2022-08-17T02:39:48.457Z,99.90
2022-08-17T02:44:51.761Z,99.90
2022-08-17T02:49:56.058Z,99.90
2022-08-17T02:54:59.101Z,99.90
2022-08-17T03:00:02.360Z,99.90
2022-08-17T03:05:06.561Z,99.90
2022-08-17T03:10:11.084Z,99.90
2022-08-17T03:15:20.361Z,99.90
2022-08-17T03:20:25.361Z,99.90
2022-08-17T03:25:31.420Z,99.90
2022-08-17T03:30:38.129Z,99.90
2022-08-17T03:35:42.360Z,99.90
2022-08-17T03:40:57.313Z,99.90
2022-08-17T03:46:34.285Z,99.90
2022-08-17T03:51:56.502Z,99.90
2022-08-17T03:57:10.783Z,99.90
2022-08-17T04:02:21.515Z,99.90
2022-08-17T04:07:28.706Z,99.90
2022-08-17T04:12:51.522Z,99.90
2022-08-17T04:17:55.521Z,99.90
2022-08-17T04:23:02.762Z,99.90
2022-08-17T04:28:07.662Z,99.90
2022-08-17T04:33:22.381Z,99.90
2022-08-17T04:38:33.921Z,99.90
2022-08-17T04:43:39.071Z,99.90
2022-08-17T04:48:45.020Z,99.90
2022-08-17T04:53:54.441Z,99.90
2022-08-17T04:59:01.644Z,99.90
2022-08-17T05:04:19.951Z,99.90
2022-08-17T05:09:32.541Z,99.90
2022-08-17T05:14:35.723Z,99.90
2022-08-17T05:19:38.883Z,99.90
2022-08-17T05:24:43.551Z,99.90
2022-08-17T05:29:57.086Z,99.90
2022-08-17T05:35:00.992Z,99.90
2022-08-17T05:40:04.798Z,99.90
2022-08-17T05:45:08.904Z,99.90
2022-08-17T05:50:25.760Z,99.90
2022-08-17T05:55:49.443Z,99.90
2022-08-17T06:01:02.018Z,99.90
2022-08-17T06:06:20.427Z,99.90
2022-08-17T06:11:40.209Z,99.90
2022-08-17T06:16:48.563Z,99.90
2022-08-17T06:21:54.422Z,99.90
2022-08-17T06:27:06.941Z,99.90
2022-08-17T06:32:12.967Z,99.90
2022-08-17T06:37:37.823Z,99.90
2022-08-17T06:43:06.874Z,99.90
2022-08-17T06:48:31.622Z,99.90
2022-08-17T06:54:00.128Z,99.90
2022-08-17T06:59:04.105Z,99.90
2022-08-17T07:04:24.124Z,99.90
2022-08-17T07:09:38.198Z,99.90
2022-08-17T07:14:48.347Z,99.90
2022-08-17T07:19:57.442Z,99.90
2022-08-17T07:25:08.515Z,99.90
2022-08-17T07:30:22.416Z,99.90
2022-08-17T07:35:50.609Z,99.90
2022-08-17T07:41:03.081Z,99.90
2022-08-17T07:46:38.763Z,99.90
2022-08-17T07:51:57.687Z,99.90
2022-08-17T07:57:15.146Z,99.90
2022-08-17T08:02:31.881Z,99.90
2022-08-17T08:07:39.461Z,99.90
2022-08-17T08:12:43.323Z,99.90
2022-08-17T08:17:53.433Z,99.90
2022-08-17T08:23:12.571Z,99.90
2022-08-17T08:28:30.247Z,99.90
2022-08-17T08:34:53.207Z,99.90
2022-08-17T08:39:52.658Z,99.90
2022-08-17T08:45:08.214Z,99.90
2022-08-17T08:50:37.620Z,99.90
2022-08-17T08:55:56.903Z,99.90
2022-08-17T09:01:03.757Z,99.90
2022-08-17T09:06:32.228Z,99.90
2022-08-17T09:12:09.610Z,99.90
2022-08-17T09:17:33.802Z,99.90
2022-08-17T09:22:43.666Z,99.90
2022-08-17T09:28:07.311Z,99.90
2022-08-17T09:33:15.086Z,99.90
2022-08-17T09:38:53.327Z,99.90
2022-08-17T09:44:23.210Z,99.90
2022-08-17T09:49:36.027Z,99.90
2022-08-17T09:54:41.802Z,99.90
2022-08-17T10:00:17.363Z,99.90
2022-08-17T10:05:32.922Z,99.90
2022-08-17T10:11:06.045Z,99.80
2022-08-17T10:16:29.888Z,98.80
2022-08-17T10:22:01.429Z,97.80
2022-08-17T10:27:22.066Z,98.70
2022-08-17T10:32:44.811Z,95.70
2022-08-17T10:37:50.779Z,94.50
2022-08-17T10:43:23.307Z,94.80
2022-08-17T10:48:33.052Z,92.50
2022-08-17T10:53:36.221Z,90.20
2022-08-17T10:58:55.150Z,85.40
2022-08-17T11:04:04.121Z,91.30
2022-08-17T11:09:24.441Z,86.40
2022-08-17T11:14:48.512Z,82.30
2022-08-17T11:20:38.325Z,84.20
2022-08-17T11:25:47.609Z,82.10
2022-08-17T11:30:57.448Z,80.70
2022-08-17T11:36:15.001Z,82.00
2022-08-17T11:41:28.073Z,81.70
2022-08-17T11:46:58.680Z,78.10
2022-08-17T11:52:01.813Z,79.60
2022-08-17T11:57:26.603Z,80.60
2022-08-17T12:02:32.190Z,74.00
2022-08-17T12:07:43.575Z,77.70
2022-08-17T12:12:50.763Z,76.90
2022-08-17T12:17:58.183Z,70.90
2022-08-17T12:23:07.636Z,71.30
2022-08-17T12:28:47.961Z,72.40
2022-08-17T12:33:52.361Z,66.90
2022-08-17T12:39:13.736Z,68.40
2022-08-17T12:44:22.008Z,74.20
2022-08-17T12:49:31.956Z,70.70
2022-08-17T12:54:57.629Z,68.90
2022-08-17T13:00:18.291Z,69.60
2022-08-17T13:05:28.121Z,69.50
2022-08-17T13:10:34.634Z,67.80
2022-08-17T13:15:43.228Z,69.70
2022-08-17T13:20:57.980Z,69.10
2022-08-17T13:26:16.991Z,69.50
2022-08-17T13:31:30.488Z,71.20
2022-08-17T13:36:34.020Z,68.60
2022-08-17T13:41:38.913Z,71.30
2022-08-17T13:46:52.523Z,70.00
2022-08-17T13:52:00.401Z,68.20
2022-08-17T13:57:22.037Z,68.00
2022-08-17T14:02:28.279Z,67.90
2022-08-17T14:07:36.502Z,70.40
2022-08-17T14:12:41.441Z,70.80
2022-08-17T14:17:44.689Z,68.40
2022-08-17T14:22:50.961Z,68.90
2022-08-17T14:27:55.061Z,69.90
2022-08-17T14:32:59.917Z,69.20
2022-08-17T14:38:02.960Z,69.30
2022-08-17T14:43:06.186Z,68.60
2022-08-17T14:48:09.582Z,68.10
2022-08-17T14:53:15.374Z,66.80
2022-08-17T14:58:19.209Z,66.80
2022-08-17T15:03:23.430Z,66.80
2022-08-17T15:08:28.685Z,66.20
2022-08-17T15:13:32.185Z,67.70
2022-08-17T15:18:37.054Z,66.70
2022-08-17T15:23:40.482Z,66.60
2022-08-17T15:28:48.984Z,65.70
2022-08-17T15:33:58.977Z,66.00
2022-08-17T15:39:02.282Z,64.70
2022-08-17T15:44:06.052Z,65.80
2022-08-17T15:49:09.344Z,64.40
2022-08-17T15:54:19.188Z,65.60
2022-08-17T15:59:26.306Z,64.60
2022-08-17T16:04:30.863Z,65.50
2022-08-17T16:09:34.970Z,67.60
2022-08-17T16:14:38.281Z,70.00
2022-08-17T16:19:42.291Z,73.20
2022-08-17T16:24:56.800Z,74.70
2022-08-17T16:30:01.563Z,75.50
2022-08-17T16:35:11.944Z,76.90
2022-08-17T16:40:17.547Z,78.10
2022-08-17T16:45:28.770Z,79.40
2022-08-17T16:50:33.181Z,80.20
2022-08-17T16:55:36.862Z,81.40
2022-08-17T17:00:40.386Z,82.80
2022-08-17T17:06:16.757Z,83.90
2022-08-17T17:11:39.801Z,84.40
2022-08-17T17:16:51.941Z,85.70
2022-08-17T17:22:22.669Z,86.50
2022-08-17T17:28:08.501Z,87.30
2022-08-17T17:33:23.201Z,90.00
2022-08-17T17:38:32.461Z,91.10
2022-08-17T17:43:40.244Z,92.00
2022-08-17T17:48:44.310Z,93.00
2022-08-17T17:54:07.841Z,94.40
2022-08-17T17:59:33.541Z,95.80
2022-08-17T18:04:51.401Z,97.20
2022-08-17T18:10:32.526Z,98.60
2022-08-17T18:15:54.414Z,99.90
2022-08-17T18:21:05.781Z,99.90
2022-08-17T18:26:09.065Z,99.90
2022-08-17T18:31:20.381Z,99.90
2022-08-17T18:36:32.841Z,99.90
2022-08-17T18:41:41.943Z,99.90
2022-08-17T18:46:45.041Z,99.90
2022-08-17T18:51:51.601Z,99.90
2022-08-17T18:57:04.191Z,99.90
2022-08-17T19:07:41.667Z,99.90
2022-08-17T19:13:00.869Z,99.90
2022-08-17T19:18:30.101Z,99.90
2022-08-17T19:23:54.187Z,99.90
2022-08-17T19:29:10.322Z,99.90
2022-08-17T19:34:16.661Z,99.90
2022-08-17T19:39:47.284Z,99.90
2022-08-17T19:45:23.288Z,99.90
2022-08-17T19:51:09.746Z,99.90
2022-08-17T19:56:24.427Z,99.90
2022-08-17T20:08:15.694Z,99.90
2022-08-17T20:13:33.282Z,99.90
2022-08-17T20:24:56.137Z,99.90
2022-08-17T20:30:49.200Z,99.90
2022-08-17T20:36:20.993Z,99.90
2022-08-17T20:41:30.391Z,99.90
2022-08-17T20:46:39.597Z,99.90
2022-08-17T20:52:21.057Z,99.90
2022-08-17T20:57:33.641Z,99.90
2022-08-17T21:02:37.453Z,99.90
2022-08-17T21:07:53.881Z,99.90
2022-08-17T21:13:08.786Z,99.90
2022-08-17T21:18:26.970Z,99.90
2022-08-17T21:24:08.105Z,99.90
2022-08-17T21:29:32.339Z,99.90
2022-08-17T21:34:36.457Z,99.90
2022-08-17T21:39:42.206Z,99.90
2022-08-17T21:44:50.955Z,99.90
2022-08-17T21:49:59.012Z,99.90
2022-08-17T21:55:03.715Z,99.90
2022-08-17T22:00:17.501Z,99.90
2022-08-17T22:05:30.285Z,99.90
2022-08-17T22:10:46.594Z,99.90
2022-08-17T22:16:27.810Z,99.90
2022-08-17T22:21:34.615Z,99.90
2022-08-17T22:27:04.374Z,99.90
2022-08-17T22:32:07.601Z,99.90
2022-08-17T22:37:32.092Z,99.90
2022-08-17T22:42:46.680Z,99.90
2022-08-17T22:47:55.203Z,99.90
2022-08-17T22:53:23.159Z,99.90
2022-08-17T22:58:58.854Z,99.90
2022-08-17T23:04:30.417Z,99.90
2022-08-17T23:09:34.277Z,99.90
2022-08-17T23:14:41.519Z,99.90
2022-08-17T23:19:45.637Z,99.90
2022-08-17T23:24:51.637Z,99.90
2022-08-17T23:29:56.884Z,99.90
2022-08-17T23:35:04.652Z,99.90
2022-08-17T23:40:33.962Z,99.90
2022-08-17T23:45:39.309Z,99.90
2022-08-17T23:50:43.056Z,99.90
2022-08-17T23:55:47.257Z,99.90
